sensor_id;sensor_type;location;lat;lon;timestamp;temperature;humidity
782;DHT22;374;52.568;13.402;2022-08-03T00:02:11;22.80;65.90
782;DHT22;374;52.568;13.402;2022-08-03T00:04:41;22.80;66.20
782;DHT22;374;52.568;13.402;2022-08-03T00:07:08;22.80;66.80
782;DHT22;374;52.568;13.402;2022-08-03T00:09:33;22.80;67.00
782;DHT22;374;52.568;13.402;2022-08-03T00:11:59;22.80;67.10
782;DHT22;374;52.568;13.402;2022-08-03T00:14:25;22.80;67.10
782;DHT22;374;52.568;13.402;2022-08-03T00:16:50;22.70;67.00
782;DHT22;374;52.568;13.402;2022-08-03T00:19:17;22.70;67.00
782;DHT22;374;52.568;13.402;2022-08-03T00:21:42;22.70;66.70
782;DHT22;374;52.568;13.402;2022-08-03T00:24:10;22.70;66.80
782;DHT22;374;52.568;13.402;2022-08-03T00:26:37;22.60;66.80
782;DHT22;374;52.568;13.402;2022-08-03T00:29:04;22.60;67.10
782;DHT22;374;52.568;13.402;2022-08-03T00:31:31;22.70;67.50
782;DHT22;374;52.568;13.402;2022-08-03T00:33:58;22.60;67.50
782;DHT22;374;52.568;13.402;2022-08-03T00:36:25;22.60;67.70
782;DHT22;374;52.568;13.402;2022-08-03T00:38:52;22.60;67.90
782;DHT22;374;52.568;13.402;2022-08-03T00:41:18;22.60;67.90
782;DHT22;374;52.568;13.402;2022-08-03T00:43:44;22.60;68.10
782;DHT22;374;52.568;13.402;2022-08-03T00:46:12;22.60;68.20
782;DHT22;374;52.568;13.402;2022-08-03T00:48:39;22.60;68.20
782;DHT22;374;52.568;13.402;2022-08-03T00:51:04;22.60;68.90
782;DHT22;374;52.568;13.402;2022-08-03T00:53:31;22.60;68.20
782;DHT22;374;52.568;13.402;2022-08-03T00:55:57;22.60;68.10
782;DHT22;374;52.568;13.402;2022-08-03T00:58:24;22.50;67.90
782;DHT22;374;52.568;13.402;2022-08-03T01:00:51;22.70;68.20
782;DHT22;374;52.568;13.402;2022-08-03T01:03:17;22.60;68.30
782;DHT22;374;52.568;13.402;2022-08-03T01:08:24;22.50;68.30
782;DHT22;374;52.568;13.402;2022-08-03T01:11:09;22.50;68.30
782;DHT22;374;52.568;13.402;2022-08-03T01:16:29;22.40;67.00
782;DHT22;374;52.568;13.402;2022-08-03T01:25:09;22.50;65.90
782;DHT22;374;52.568;13.402;2022-08-03T01:30:13;22.40;65.30
782;DHT22;374;52.568;13.402;2022-08-03T01:32:51;22.40;65.40
782;DHT22;374;52.568;13.402;2022-08-03T01:35:27;22.40;65.70
782;DHT22;374;52.568;13.402;2022-08-03T01:37:59;22.40;66.30
782;DHT22;374;52.568;13.402;2022-08-03T01:40:26;22.40;66.80
782;DHT22;374;52.568;13.402;2022-08-03T01:42:54;22.40;67.10
782;DHT22;374;52.568;13.402;2022-08-03T01:45:23;22.50;68.00
782;DHT22;374;52.568;13.402;2022-08-03T01:47:49;22.40;68.30
782;DHT22;374;52.568;13.402;2022-08-03T01:50:22;22.50;68.60
782;DHT22;374;52.568;13.402;2022-08-03T01:52:49;22.40;68.90
782;DHT22;374;52.568;13.402;2022-08-03T01:55:21;22.50;69.10
782;DHT22;374;52.568;13.402;2022-08-03T01:57:49;22.40;69.40
782;DHT22;374;52.568;13.402;2022-08-03T02:00:17;22.40;69.20
782;DHT22;374;52.568;13.402;2022-08-03T02:02:43;22.40;69.50
782;DHT22;374;52.568;13.402;2022-08-03T02:05:13;22.30;69.50
782;DHT22;374;52.568;13.402;2022-08-03T02:07:41;22.30;69.60
782;DHT22;374;52.568;13.402;2022-08-03T02:10:29;22.40;69.60
782;DHT22;374;52.568;13.402;2022-08-03T02:13:00;22.60;69.70
782;DHT22;374;52.568;13.402;2022-08-03T02:15:27;22.40;69.40
782;DHT22;374;52.568;13.402;2022-08-03T02:17:55;22.30;69.10
782;DHT22;374;52.568;13.402;2022-08-03T02:20:22;22.40;69.20
782;DHT22;374;52.568;13.402;2022-08-03T02:22:49;22.40;69.60
782;DHT22;374;52.568;13.402;2022-08-03T02:25:15;22.40;69.70
782;DHT22;374;52.568;13.402;2022-08-03T02:28:03;22.40;69.80
782;DHT22;374;52.568;13.402;2022-08-03T02:30:35;22.50;70.30
782;DHT22;374;52.568;13.402;2022-08-03T02:33:04;22.30;70.20
782;DHT22;374;52.568;13.402;2022-08-03T02:35:34;22.40;70.40
782;DHT22;374;52.568;13.402;2022-08-03T02:38:03;22.40;70.60
782;DHT22;374;52.568;13.402;2022-08-03T02:40:30;22.40;70.60
782;DHT22;374;52.568;13.402;2022-08-03T02:43:11;22.30;70.50
782;DHT22;374;52.568;13.402;2022-08-03T02:45:43;22.30;70.40
782;DHT22;374;52.568;13.402;2022-08-03T02:48:11;22.40;70.60
782;DHT22;374;52.568;13.402;2022-08-03T02:50:41;22.70;71.20
782;DHT22;374;52.568;13.402;2022-08-03T02:53:12;22.30;70.80
782;DHT22;374;52.568;13.402;2022-08-03T02:55:42;22.30;70.90
782;DHT22;374;52.568;13.402;2022-08-03T02:58:18;22.30;70.90
782;DHT22;374;52.568;13.402;2022-08-03T03:00:46;22.50;71.20
782;DHT22;374;52.568;13.402;2022-08-03T03:03:12;22.20;71.10
782;DHT22;374;52.568;13.402;2022-08-03T03:05:40;22.60;71.70
782;DHT22;374;52.568;13.402;2022-08-03T03:08:07;22.30;71.30
782;DHT22;374;52.568;13.402;2022-08-03T03:10:34;22.20;71.20
782;DHT22;374;52.568;13.402;2022-08-03T03:13:00;22.20;71.30
782;DHT22;374;52.568;13.402;2022-08-03T03:15:27;22.20;71.30
782;DHT22;374;52.568;13.402;2022-08-03T03:17:54;22.20;71.50
782;DHT22;374;52.568;13.402;2022-08-03T03:20:23;22.20;71.70
782;DHT22;374;52.568;13.402;2022-08-03T03:22:50;22.20;71.90
782;DHT22;374;52.568;13.402;2022-08-03T03:25:17;22.20;72.50
782;DHT22;374;52.568;13.402;2022-08-03T03:27:43;22.60;72.50
782;DHT22;374;52.568;13.402;2022-08-03T03:30:10;22.20;72.30
782;DHT22;374;52.568;13.402;2022-08-03T03:32:36;22.10;72.00
782;DHT22;374;52.568;13.402;2022-08-03T03:35:04;22.10;71.30
782;DHT22;374;52.568;13.402;2022-08-03T03:37:31;22.10;71.00
782;DHT22;374;52.568;13.402;2022-08-03T03:39:56;22.10;70.50
782;DHT22;374;52.568;13.402;2022-08-03T03:42:22;22.10;70.10
782;DHT22;374;52.568;13.402;2022-08-03T03:44:49;22.10;69.50
782;DHT22;374;52.568;13.402;2022-08-03T03:47:15;22.00;69.50
782;DHT22;374;52.568;13.402;2022-08-03T03:49:40;22.20;69.70
782;DHT22;374;52.568;13.402;2022-08-03T03:52:07;22.00;69.50
782;DHT22;374;52.568;13.402;2022-08-03T03:54:43;21.90;69.40
782;DHT22;374;52.568;13.402;2022-08-03T03:57:10;22.00;69.50
782;DHT22;374;52.568;13.402;2022-08-03T03:59:42;22.00;69.20
782;DHT22;374;52.568;13.402;2022-08-03T04:02:09;22.00;69.20
782;DHT22;374;52.568;13.402;2022-08-03T04:04:36;21.90;69.30
782;DHT22;374;52.568;13.402;2022-08-03T04:07:23;21.90;69.30
782;DHT22;374;52.568;13.402;2022-08-03T04:10:19;21.90;69.20
782;DHT22;374;52.568;13.402;2022-08-03T04:13:07;21.90;69.40
782;DHT22;374;52.568;13.402;2022-08-03T04:15:39;21.90;69.70
782;DHT22;374;52.568;13.402;2022-08-03T04:18:08;21.90;70.50
782;DHT22;374;52.568;13.402;2022-08-03T04:20:40;21.80;70.70
782;DHT22;374;52.568;13.402;2022-08-03T04:23:10;21.90;70.80
782;DHT22;374;52.568;13.402;2022-08-03T04:25:38;21.90;70.80
782;DHT22;374;52.568;13.402;2022-08-03T04:28:09;22.00;71.00
782;DHT22;374;52.568;13.402;2022-08-03T04:30:40;21.90;70.90
782;DHT22;374;52.568;13.402;2022-08-03T04:33:15;21.90;71.10
782;DHT22;374;52.568;13.402;2022-08-03T04:35:46;21.90;71.10
782;DHT22;374;52.568;13.402;2022-08-03T04:38:20;21.90;71.30
782;DHT22;374;52.568;13.402;2022-08-03T04:40:50;21.90;71.40
782;DHT22;374;52.568;13.402;2022-08-03T04:43:30;21.90;71.20
782;DHT22;374;52.568;13.402;2022-08-03T04:46:02;21.90;71.10
782;DHT22;374;52.568;13.402;2022-08-03T04:48:28;22.40;71.60
782;DHT22;374;52.568;13.402;2022-08-03T04:50:54;21.90;71.00
782;DHT22;374;52.568;13.402;2022-08-03T04:53:20;21.90;70.80
782;DHT22;374;52.568;13.402;2022-08-03T04:55:46;22.00;70.60
782;DHT22;374;52.568;13.402;2022-08-03T04:58:11;21.80;70.00
782;DHT22;374;52.568;13.402;2022-08-03T05:00:37;21.90;69.90
782;DHT22;374;52.568;13.402;2022-08-03T05:03:03;21.90;70.60
782;DHT22;374;52.568;13.402;2022-08-03T05:05:28;22.30;70.00
782;DHT22;374;52.568;13.402;2022-08-03T05:07:54;22.00;69.40
782;DHT22;374;52.568;13.402;2022-08-03T05:10:20;22.00;69.30
782;DHT22;374;52.568;13.402;2022-08-03T05:12:47;21.90;69.00
782;DHT22;374;52.568;13.402;2022-08-03T05:15:13;22.00;68.90
782;DHT22;374;52.568;13.402;2022-08-03T05:17:39;22.00;68.90
782;DHT22;374;52.568;13.402;2022-08-03T05:20:05;22.00;68.70
782;DHT22;374;52.568;13.402;2022-08-03T05:22:31;22.00;68.60
782;DHT22;374;52.568;13.402;2022-08-03T05:24:56;22.10;68.50
782;DHT22;374;52.568;13.402;2022-08-03T05:27:22;22.00;68.30
782;DHT22;374;52.568;13.402;2022-08-03T05:29:49;22.10;68.40
782;DHT22;374;52.568;13.402;2022-08-03T05:32:16;22.10;68.20
782;DHT22;374;52.568;13.402;2022-08-03T05:34:42;22.10;67.90
782;DHT22;374;52.568;13.402;2022-08-03T05:37:08;22.10;67.90
782;DHT22;374;52.568;13.402;2022-08-03T05:39:34;22.10;67.80
782;DHT22;374;52.568;13.402;2022-08-03T05:42:00;22.10;67.80
782;DHT22;374;52.568;13.402;2022-08-03T05:44:26;22.10;67.70
782;DHT22;374;52.568;13.402;2022-08-03T05:46:53;22.10;67.80
782;DHT22;374;52.568;13.402;2022-08-03T05:49:19;22.20;67.60
782;DHT22;374;52.568;13.402;2022-08-03T05:51:45;22.20;67.60
782;DHT22;374;52.568;13.402;2022-08-03T05:54:12;22.50;67.80
782;DHT22;374;52.568;13.402;2022-08-03T05:56:38;22.20;67.20
782;DHT22;374;52.568;13.402;2022-08-03T05:59:08;22.30;67.20
782;DHT22;374;52.568;13.402;2022-08-03T06:01:35;22.30;67.10
782;DHT22;374;52.568;13.402;2022-08-03T06:04:04;22.30;67.00
782;DHT22;374;52.568;13.402;2022-08-03T06:06:31;22.30;67.30
782;DHT22;374;52.568;13.402;2022-08-03T06:08:57;22.40;67.20
782;DHT22;374;52.568;13.402;2022-08-03T06:11:24;22.50;66.90
782;DHT22;374;52.568;13.402;2022-08-03T06:13:51;22.50;65.80
782;DHT22;374;52.568;13.402;2022-08-03T06:16:17;22.50;65.20
782;DHT22;374;52.568;13.402;2022-08-03T06:18:45;22.70;64.20
782;DHT22;374;52.568;13.402;2022-08-03T06:21:12;22.80;63.80
782;DHT22;374;52.568;13.402;2022-08-03T06:23:38;23.00;62.60
782;DHT22;374;52.568;13.402;2022-08-03T06:26:07;23.10;62.10
782;DHT22;374;52.568;13.402;2022-08-03T06:28:35;23.60;61.30
782;DHT22;374;52.568;13.402;2022-08-03T06:31:03;23.40;60.40
782;DHT22;374;52.568;13.402;2022-08-03T06:33:29;23.50;59.60
782;DHT22;374;52.568;13.402;2022-08-03T06:35:58;23.70;59.40
782;DHT22;374;52.568;13.402;2022-08-03T06:38:24;23.80;59.00
782;DHT22;374;52.568;13.402;2022-08-03T06:40:49;24.00;58.80
782;DHT22;374;52.568;13.402;2022-08-03T06:43:15;24.10;58.30
782;DHT22;374;52.568;13.402;2022-08-03T06:45:41;24.30;57.90
782;DHT22;374;52.568;13.402;2022-08-03T06:48:09;24.60;57.90
782;DHT22;374;52.568;13.402;2022-08-03T06:50:37;24.60;57.30
782;DHT22;374;52.568;13.402;2022-08-03T06:53:05;24.80;57.10
782;DHT22;374;52.568;13.402;2022-08-03T06:55:57;25.00;56.90
782;DHT22;374;52.568;13.402;2022-08-03T06:58:22;25.20;56.80
782;DHT22;374;52.568;13.402;2022-08-03T07:00:48;25.40;56.20
782;DHT22;374;52.568;13.402;2022-08-03T07:03:15;25.60;55.70
782;DHT22;374;52.568;13.402;2022-08-03T07:05:42;25.70;55.80
782;DHT22;374;52.568;13.402;2022-08-03T07:08:08;25.90;55.60
782;DHT22;374;52.568;13.402;2022-08-03T07:10:34;26.00;55.60
782;DHT22;374;52.568;13.402;2022-08-03T07:12:59;26.20;55.40
782;DHT22;374;52.568;13.402;2022-08-03T07:15:25;26.40;54.70
782;DHT22;374;52.568;13.402;2022-08-03T07:17:51;26.50;54.10
782;DHT22;374;52.568;13.402;2022-08-03T07:20:20;26.70;54.00
782;DHT22;374;52.568;13.402;2022-08-03T07:22:45;26.80;54.10
782;DHT22;374;52.568;13.402;2022-08-03T07:25:11;26.90;54.00
782;DHT22;374;52.568;13.402;2022-08-03T07:27:36;27.10;53.80
782;DHT22;374;52.568;13.402;2022-08-03T07:30:05;27.30;53.70
782;DHT22;374;52.568;13.402;2022-08-03T07:32:32;27.40;53.20
782;DHT22;374;52.568;13.402;2022-08-03T07:34:58;27.60;52.90
782;DHT22;374;52.568;13.402;2022-08-03T07:37:23;27.70;52.80
782;DHT22;374;52.568;13.402;2022-08-03T07:39:49;27.90;52.50
782;DHT22;374;52.568;13.402;2022-08-03T07:42:14;28.10;51.90
782;DHT22;374;52.568;13.402;2022-08-03T07:44:40;28.20;51.60
782;DHT22;374;52.568;13.402;2022-08-03T07:47:06;28.40;52.10
782;DHT22;374;52.568;13.402;2022-08-03T07:49:32;28.50;51.50
782;DHT22;374;52.568;13.402;2022-08-03T07:51:59;28.80;51.50
782;DHT22;374;52.568;13.402;2022-08-03T07:54:43;28.90;50.70
782;DHT22;374;52.568;13.402;2022-08-03T07:57:09;29.10;50.50
782;DHT22;374;52.568;13.402;2022-08-03T07:59:34;29.20;50.30
782;DHT22;374;52.568;13.402;2022-08-03T08:02:00;29.40;50.10
782;DHT22;374;52.568;13.402;2022-08-03T08:04:25;29.50;49.40
782;DHT22;374;52.568;13.402;2022-08-03T08:06:51;29.70;48.80
782;DHT22;374;52.568;13.402;2022-08-03T08:09:16;29.90;48.10
782;DHT22;374;52.568;13.402;2022-08-03T08:11:42;30.10;48.30
782;DHT22;374;52.568;13.402;2022-08-03T08:14:09;30.20;47.80
782;DHT22;374;52.568;13.402;2022-08-03T08:16:35;30.40;47.50
782;DHT22;374;52.568;13.402;2022-08-03T08:19:00;30.30;50.00
782;DHT22;374;52.568;13.402;2022-08-03T08:21:26;30.40;49.80
782;DHT22;374;52.568;13.402;2022-08-03T08:23:52;30.50;48.90
782;DHT22;374;52.568;13.402;2022-08-03T08:26:17;30.60;48.10
782;DHT22;374;52.568;13.402;2022-08-03T08:28:43;30.90;47.30
782;DHT22;374;52.568;13.402;2022-08-03T08:31:09;31.10;46.20
782;DHT22;374;52.568;13.402;2022-08-03T08:33:35;31.40;46.00
782;DHT22;374;52.568;13.402;2022-08-03T08:36:01;31.70;44.80
782;DHT22;374;52.568;13.402;2022-08-03T08:38:26;31.90;43.80
782;DHT22;374;52.568;13.402;2022-08-03T08:40:55;32.10;42.80
782;DHT22;374;52.568;13.402;2022-08-03T08:43:20;32.40;42.90
782;DHT22;374;52.568;13.402;2022-08-03T08:45:48;32.60;43.10
782;DHT22;374;52.568;13.402;2022-08-03T08:48:19;32.80;41.00
782;DHT22;374;52.568;13.402;2022-08-03T08:50:47;33.00;40.40
782;DHT22;374;52.568;13.402;2022-08-03T08:53:14;33.20;40.50
782;DHT22;374;52.568;13.402;2022-08-03T08:55:40;33.30;40.50
782;DHT22;374;52.568;13.402;2022-08-03T08:58:07;33.50;40.30
782;DHT22;374;52.568;13.402;2022-08-03T09:00:33;33.70;40.10
782;DHT22;374;52.568;13.402;2022-08-03T09:03:00;33.90;39.70
782;DHT22;374;52.568;13.402;2022-08-03T09:05:25;34.10;39.70
782;DHT22;374;52.568;13.402;2022-08-03T09:07:51;34.30;39.90
782;DHT22;374;52.568;13.402;2022-08-03T09:10:17;34.40;39.00
782;DHT22;374;52.568;13.402;2022-08-03T09:12:48;34.80;38.90
782;DHT22;374;52.568;13.402;2022-08-03T09:15:31;35.20;38.20
782;DHT22;374;52.568;13.402;2022-08-03T09:18:01;35.70;37.70
782;DHT22;374;52.568;13.402;2022-08-03T09:20:29;36.20;36.80
782;DHT22;374;52.568;13.402;2022-08-03T09:23:05;36.90;36.30
782;DHT22;374;52.568;13.402;2022-08-03T09:25:37;37.50;34.90
782;DHT22;374;52.568;13.402;2022-08-03T09:28:16;38.00;34.30
782;DHT22;374;52.568;13.402;2022-08-03T09:31:08;38.60;33.50
782;DHT22;374;52.568;13.402;2022-08-03T09:33:48;39.20;33.10
782;DHT22;374;52.568;13.402;2022-08-03T09:39:24;40.20;31.40
782;DHT22;374;52.568;13.402;2022-08-03T09:42:08;40.90;30.20
782;DHT22;374;52.568;13.402;2022-08-03T09:44:42;41.60;29.50
782;DHT22;374;52.568;13.402;2022-08-03T09:47:09;42.00;28.80
782;DHT22;374;52.568;13.402;2022-08-03T09:49:39;42.50;28.30
782;DHT22;374;52.568;13.402;2022-08-03T09:52:16;42.90;27.90
782;DHT22;374;52.568;13.402;2022-08-03T09:54:46;43.20;26.80
782;DHT22;374;52.568;13.402;2022-08-03T09:57:22;43.30;26.60
782;DHT22;374;52.568;13.402;2022-08-03T09:59:49;43.70;27.00
782;DHT22;374;52.568;13.402;2022-08-03T10:02:26;44.00;26.20
782;DHT22;374;52.568;13.402;2022-08-03T10:04:53;44.20;25.10
782;DHT22;374;52.568;13.402;2022-08-03T10:07:21;43.70;24.70
782;DHT22;374;52.568;13.402;2022-08-03T10:10:00;43.10;25.40
782;DHT22;374;52.568;13.402;2022-08-03T10:12:27;42.30;25.80
782;DHT22;374;52.568;13.402;2022-08-03T10:14:56;41.60;26.80
782;DHT22;374;52.568;13.402;2022-08-03T10:17:22;40.80;27.00
782;DHT22;374;52.568;13.402;2022-08-03T10:19:50;40.20;27.70
782;DHT22;374;52.568;13.402;2022-08-03T10:22:20;39.80;27.90
782;DHT22;374;52.568;13.402;2022-08-03T10:24:59;39.40;28.20
782;DHT22;374;52.568;13.402;2022-08-03T10:27:31;39.00;28.30
782;DHT22;374;52.568;13.402;2022-08-03T10:30:02;38.40;29.10
782;DHT22;374;52.568;13.402;2022-08-03T10:32:35;37.90;29.40
782;DHT22;374;52.568;13.402;2022-08-03T10:35:11;37.30;30.00
782;DHT22;374;52.568;13.402;2022-08-03T10:37:44;36.70;30.20
782;DHT22;374;52.568;13.402;2022-08-03T10:40:14;36.30;31.20
782;DHT22;374;52.568;13.402;2022-08-03T10:42:41;35.90;31.10
782;DHT22;374;52.568;13.402;2022-08-03T10:45:18;35.50;31.80
782;DHT22;374;52.568;13.402;2022-08-03T10:47:48;35.10;33.10
782;DHT22;374;52.568;13.402;2022-08-03T10:50:16;34.90;33.00
782;DHT22;374;52.568;13.402;2022-08-03T10:53:02;34.60;33.30
782;DHT22;374;52.568;13.402;2022-08-03T10:55:39;34.40;34.00
782;DHT22;374;52.568;13.402;2022-08-03T11:01:05;34.10;34.50
782;DHT22;374;52.568;13.402;2022-08-03T11:03:31;33.80;35.00
782;DHT22;374;52.568;13.402;2022-08-03T11:06:15;33.70;35.00
782;DHT22;374;52.568;13.402;2022-08-03T11:08:45;33.60;35.10
782;DHT22;374;52.568;13.402;2022-08-03T11:16:38;33.10;35.30
782;DHT22;374;52.568;13.402;2022-08-03T11:19:16;33.00;35.80
782;DHT22;374;52.568;13.402;2022-08-03T11:35:27;32.40;36.50
782;DHT22;374;52.568;13.402;2022-08-03T11:40:39;32.30;37.20
782;DHT22;374;52.568;13.402;2022-08-03T11:46:01;32.20;37.60
782;DHT22;374;52.568;13.402;2022-08-03T11:48:40;32.20;38.00
782;DHT22;374;52.568;13.402;2022-08-03T11:51:22;32.20;37.40
782;DHT22;374;52.568;13.402;2022-08-03T11:53:55;32.10;37.70
782;DHT22;374;52.568;13.402;2022-08-03T11:56:22;32.00;37.50
782;DHT22;374;52.568;13.402;2022-08-03T11:58:55;32.00;38.10
782;DHT22;374;52.568;13.402;2022-08-03T12:01:23;32.00;36.90
782;DHT22;374;52.568;13.402;2022-08-03T12:03:49;31.90;37.30
782;DHT22;374;52.568;13.402;2022-08-03T12:06:16;31.90;37.70
782;DHT22;374;52.568;13.402;2022-08-03T12:08:43;31.90;38.30
782;DHT22;374;52.568;13.402;2022-08-03T12:11:11;31.90;38.50
782;DHT22;374;52.568;13.402;2022-08-03T12:13:46;31.90;39.00
782;DHT22;374;52.568;13.402;2022-08-03T12:16:19;31.90;38.50
782;DHT22;374;52.568;13.402;2022-08-03T12:18:54;31.80;38.90
782;DHT22;374;52.568;13.402;2022-08-03T12:21:20;31.80;38.80
782;DHT22;374;52.568;13.402;2022-08-03T12:23:49;31.80;38.20
782;DHT22;374;52.568;13.402;2022-08-03T12:26:15;31.80;38.30
782;DHT22;374;52.568;13.402;2022-08-03T12:28:49;31.70;38.00
782;DHT22;374;52.568;13.402;2022-08-03T12:31:14;31.70;38.60
782;DHT22;374;52.568;13.402;2022-08-03T12:34:00;31.70;38.20
782;DHT22;374;52.568;13.402;2022-08-03T12:36:28;31.70;37.80
782;DHT22;374;52.568;13.402;2022-08-03T12:39:07;31.70;38.30
782;DHT22;374;52.568;13.402;2022-08-03T12:41:35;31.60;38.50
782;DHT22;374;52.568;13.402;2022-08-03T12:44:02;31.60;38.80
782;DHT22;374;52.568;13.402;2022-08-03T12:46:30;31.60;38.90
782;DHT22;374;52.568;13.402;2022-08-03T12:49:04;31.60;39.20
782;DHT22;374;52.568;13.402;2022-08-03T12:51:55;31.60;39.50
782;DHT22;374;52.568;13.402;2022-08-03T12:54:26;31.60;39.90
782;DHT22;374;52.568;13.402;2022-08-03T12:57:02;31.50;40.10
782;DHT22;374;52.568;13.402;2022-08-03T12:59:33;31.50;40.50
782;DHT22;374;52.568;13.402;2022-08-03T13:02:00;31.50;40.20
782;DHT22;374;52.568;13.402;2022-08-03T13:04:31;31.50;40.20
782;DHT22;374;52.568;13.402;2022-08-03T13:07:05;31.50;39.80
782;DHT22;374;52.568;13.402;2022-08-03T13:09:50;31.40;38.80
782;DHT22;374;52.568;13.402;2022-08-03T13:12:27;31.40;39.10
782;DHT22;374;52.568;13.402;2022-08-03T13:14:59;31.40;39.20
782;DHT22;374;52.568;13.402;2022-08-03T13:17:26;31.40;39.20
782;DHT22;374;52.568;13.402;2022-08-03T13:19:51;31.40;39.70
782;DHT22;374;52.568;13.402;2022-08-03T13:22:22;31.40;39.80
782;DHT22;374;52.568;13.402;2022-08-03T13:24:51;31.40;40.20
782;DHT22;374;52.568;13.402;2022-08-03T13:27:17;31.40;39.80
782;DHT22;374;52.568;13.402;2022-08-03T13:29:43;31.40;39.90
782;DHT22;374;52.568;13.402;2022-08-03T13:32:09;31.40;40.30
782;DHT22;374;52.568;13.402;2022-08-03T13:34:35;31.30;40.10
782;DHT22;374;52.568;13.402;2022-08-03T13:37:00;31.30;40.30
782;DHT22;374;52.568;13.402;2022-08-03T13:39:26;31.30;40.20
782;DHT22;374;52.568;13.402;2022-08-03T13:41:52;31.30;40.30
782;DHT22;374;52.568;13.402;2022-08-03T13:44:18;31.20;40.50
782;DHT22;374;52.568;13.402;2022-08-03T13:46:47;31.20;40.60
782;DHT22;374;52.568;13.402;2022-08-03T13:49:12;31.30;40.60
782;DHT22;374;52.568;13.402;2022-08-03T13:51:39;31.30;40.10
782;DHT22;374;52.568;13.402;2022-08-03T13:54:04;31.30;40.10
782;DHT22;374;52.568;13.402;2022-08-03T13:56:30;31.20;40.00
782;DHT22;374;52.568;13.402;2022-08-03T13:58:57;31.30;40.60
782;DHT22;374;52.568;13.402;2022-08-03T14:01:24;31.20;40.50
782;DHT22;374;52.568;13.402;2022-08-03T14:03:50;31.20;40.50
782;DHT22;374;52.568;13.402;2022-08-03T14:06:21;31.20;41.20
782;DHT22;374;52.568;13.402;2022-08-03T14:08:47;31.20;40.00
782;DHT22;374;52.568;13.402;2022-08-03T14:11:13;31.20;39.90
782;DHT22;374;52.568;13.402;2022-08-03T14:13:39;31.20;40.00
782;DHT22;374;52.568;13.402;2022-08-03T14:16:05;31.20;40.00
782;DHT22;374;52.568;13.402;2022-08-03T14:18:31;31.20;40.10
782;DHT22;374;52.568;13.402;2022-08-03T14:20:57;31.20;40.30
782;DHT22;374;52.568;13.402;2022-08-03T14:23:23;31.20;40.60
782;DHT22;374;52.568;13.402;2022-08-03T14:25:48;31.20;41.30
782;DHT22;374;52.568;13.402;2022-08-03T14:28:14;31.20;41.40
782;DHT22;374;52.568;13.402;2022-08-03T14:30:39;31.10;41.50
782;DHT22;374;52.568;13.402;2022-08-03T14:33:05;31.20;41.70
782;DHT22;374;52.568;13.402;2022-08-03T14:35:30;31.10;41.60
782;DHT22;374;52.568;13.402;2022-08-03T14:37:56;31.10;41.90
782;DHT22;374;52.568;13.402;2022-08-03T14:40:21;31.10;42.60
782;DHT22;374;52.568;13.402;2022-08-03T14:42:47;31.10;41.90
782;DHT22;374;52.568;13.402;2022-08-03T14:45:12;31.10;41.00
782;DHT22;374;52.568;13.402;2022-08-03T14:47:38;31.10;41.10
782;DHT22;374;52.568;13.402;2022-08-03T14:50:05;31.10;41.30
782;DHT22;374;52.568;13.402;2022-08-03T14:52:31;31.10;41.10
782;DHT22;374;52.568;13.402;2022-08-03T14:54:57;31.10;41.30
782;DHT22;374;52.568;13.402;2022-08-03T14:57:23;31.10;41.00
782;DHT22;374;52.568;13.402;2022-08-03T14:59:49;31.10;41.30
782;DHT22;374;52.568;13.402;2022-08-03T15:02:14;31.10;41.30
782;DHT22;374;52.568;13.402;2022-08-03T15:04:40;31.20;41.60
782;DHT22;374;52.568;13.402;2022-08-03T15:07:05;31.10;42.00
782;DHT22;374;52.568;13.402;2022-08-03T15:09:31;31.10;42.70
782;DHT22;374;52.568;13.402;2022-08-03T15:11:57;31.10;42.70
782;DHT22;374;52.568;13.402;2022-08-03T15:14:23;31.10;42.40
782;DHT22;374;52.568;13.402;2022-08-03T15:16:48;31.10;42.30
782;DHT22;374;52.568;13.402;2022-08-03T15:19:14;31.10;42.80
782;DHT22;374;52.568;13.402;2022-08-03T15:21:39;31.00;42.00
782;DHT22;374;52.568;13.402;2022-08-03T15:24:05;31.00;42.30
782;DHT22;374;52.568;13.402;2022-08-03T15:26:31;31.00;41.90
782;DHT22;374;52.568;13.402;2022-08-03T15:28:56;31.00;42.00
782;DHT22;374;52.568;13.402;2022-08-03T15:31:23;31.00;41.20
782;DHT22;374;52.568;13.402;2022-08-03T15:33:49;31.00;41.40
782;DHT22;374;52.568;13.402;2022-08-03T15:36:16;31.00;41.50
782;DHT22;374;52.568;13.402;2022-08-03T15:38:42;31.00;41.50
782;DHT22;374;52.568;13.402;2022-08-03T15:41:07;31.00;41.60
782;DHT22;374;52.568;13.402;2022-08-03T15:43:33;31.00;41.60
782;DHT22;374;52.568;13.402;2022-08-03T15:45:58;31.00;42.00
782;DHT22;374;52.568;13.402;2022-08-03T15:48:24;31.00;42.00
782;DHT22;374;52.568;13.402;2022-08-03T15:50:50;31.00;42.90
782;DHT22;374;52.568;13.402;2022-08-03T15:53:15;31.00;43.00
782;DHT22;374;52.568;13.402;2022-08-03T15:55:41;31.00;42.60
782;DHT22;374;52.568;13.402;2022-08-03T15:58:08;30.90;43.20
782;DHT22;374;52.568;13.402;2022-08-03T16:00:34;30.90;42.70
782;DHT22;374;52.568;13.402;2022-08-03T16:03:00;30.90;42.40
782;DHT22;374;52.568;13.402;2022-08-03T16:05:26;30.90;42.60
782;DHT22;374;52.568;13.402;2022-08-03T16:07:52;30.90;42.60
782;DHT22;374;52.568;13.402;2022-08-03T16:10:19;30.90;42.50
782;DHT22;374;52.568;13.402;2022-08-03T16:12:45;30.90;42.40
782;DHT22;374;52.568;13.402;2022-08-03T16:15:11;30.90;42.40
782;DHT22;374;52.568;13.402;2022-08-03T16:17:38;30.90;42.00
782;DHT22;374;52.568;13.402;2022-08-03T16:20:05;30.90;42.30
782;DHT22;374;52.568;13.402;2022-08-03T16:22:31;30.90;42.40
782;DHT22;374;52.568;13.402;2022-08-03T16:24:57;30.90;42.40
782;DHT22;374;52.568;13.402;2022-08-03T16:27:23;30.90;42.50
782;DHT22;374;52.568;13.402;2022-08-03T16:29:48;30.90;42.30
782;DHT22;374;52.568;13.402;2022-08-03T16:32:14;30.90;42.50
782;DHT22;374;52.568;13.402;2022-08-03T16:34:40;30.90;42.70
782;DHT22;374;52.568;13.402;2022-08-03T16:37:06;30.90;42.60
782;DHT22;374;52.568;13.402;2022-08-03T16:39:32;30.90;42.40
782;DHT22;374;52.568;13.402;2022-08-03T16:41:58;30.90;42.10
782;DHT22;374;52.568;13.402;2022-08-03T16:44:23;30.90;41.80
782;DHT22;374;52.568;13.402;2022-08-03T16:46:49;30.90;41.70
782;DHT22;374;52.568;13.402;2022-08-03T16:49:14;30.90;41.60
782;DHT22;374;52.568;13.402;2022-08-03T16:51:40;31.00;42.00
782;DHT22;374;52.568;13.402;2022-08-03T16:54:05;30.90;42.00
782;DHT22;374;52.568;13.402;2022-08-03T16:56:31;30.90;42.00
782;DHT22;374;52.568;13.402;2022-08-03T16:58:57;30.90;42.40
782;DHT22;374;52.568;13.402;2022-08-03T17:01:23;31.00;42.60
782;DHT22;374;52.568;13.402;2022-08-03T17:03:49;30.90;42.40
782;DHT22;374;52.568;13.402;2022-08-03T17:06:15;30.90;42.70
782;DHT22;374;52.568;13.402;2022-08-03T17:08:41;30.90;43.50
782;DHT22;374;52.568;13.402;2022-08-03T17:11:06;30.90;43.10